createdAt,value
2022-10-06T00:00:18.405Z,5.20
2022-10-06T00:03:55.042Z,5.40
2022-10-06T00:07:31.882Z,5.40
2022-10-06T00:11:10.422Z,5.30
2022-10-06T00:14:45.561Z,4.80
2022-10-06T00:18:25.469Z,5.00
2022-10-06T00:21:59.166Z,4.70
2022-10-06T00:25:39.000Z,5.70
2022-10-06T00:29:13.623Z,7.20
2022-10-06T00:33:04.712Z,5.80
2022-10-06T00:36:28.732Z,5.80
2022-10-06T00:40:18.211Z,5.30
2022-10-06T00:43:41.585Z,5.10
2022-10-06T00:47:18.403Z,5.20
2022-10-06T00:50:57.111Z,5.10
2022-10-06T00:54:34.474Z,4.70
2022-10-06T00:58:07.765Z,5.60
2022-10-06T01:01:57.442Z,5.00
2022-10-06T01:05:29.964Z,5.00
2022-10-06T01:09:00.442Z,5.10
2022-10-06T01:12:35.053Z,5.50
2022-10-06T01:16:23.460Z,6.30
2022-10-06T01:19:55.683Z,7.30
2022-10-06T01:23:24.824Z,7.70
2022-10-06T01:27:03.313Z,9.20
2022-10-06T01:30:54.588Z,7.10
2022-10-06T01:34:15.166Z,7.10
2022-10-06T01:37:51.987Z,6.90
2022-10-06T01:41:33.574Z,6.80
2022-10-06T01:45:06.895Z,6.60
2022-10-06T01:48:42.803Z,7.00
2022-10-06T01:52:22.347Z,7.70
2022-10-06T01:56:00.345Z,6.40
2022-10-06T01:59:33.058Z,7.10
2022-10-06T02:03:37.734Z,7.00
2022-10-06T02:06:52.875Z,6.40
2022-10-06T02:10:23.006Z,7.10
2022-10-06T02:14:01.977Z,6.40
2022-10-06T02:17:38.306Z,5.90
2022-10-06T02:21:19.116Z,6.70
2022-10-06T02:24:50.091Z,7.40
2022-10-06T02:28:27.799Z,6.30
2022-10-06T02:32:03.723Z,6.60
2022-10-06T02:35:43.143Z,6.70
2022-10-06T02:39:17.501Z,5.60
2022-10-06T02:42:54.422Z,5.80
2022-10-06T02:46:31.660Z,5.60
2022-10-06T02:50:08.864Z,5.80
2022-10-06T02:53:46.881Z,5.00
2022-10-06T02:57:21.522Z,5.10
2022-10-06T03:01:09.146Z,6.30
2022-10-06T03:04:34.902Z,7.00
2022-10-06T03:08:19.984Z,6.30
2022-10-06T03:11:48.560Z,6.40
2022-10-06T03:15:25.603Z,5.90
2022-10-06T03:19:03.785Z,6.10
2022-10-06T03:22:39.003Z,5.80
2022-10-06T03:26:18.163Z,5.30
2022-10-06T03:29:53.382Z,5.30
2022-10-06T03:33:34.922Z,6.20
2022-10-06T03:37:05.821Z,5.20
2022-10-06T03:40:46.970Z,6.10
2022-10-06T03:44:22.483Z,5.80
2022-10-06T03:47:56.569Z,5.60
2022-10-06T03:51:35.810Z,5.40
2022-10-06T03:55:10.003Z,5.50
2022-10-06T03:58:51.201Z,5.50
2022-10-06T04:02:23.668Z,5.30
2022-10-06T04:06:02.884Z,5.00
2022-10-06T04:09:37.124Z,4.00
2022-10-06T04:13:17.341Z,3.90
2022-10-06T04:16:51.581Z,4.30
2022-10-06T04:20:27.643Z,3.50
2022-10-06T04:24:06.041Z,3.70
2022-10-06T04:27:41.013Z,3.10
2022-10-06T04:31:20.970Z,2.80
2022-10-06T04:34:54.772Z,2.50
2022-10-06T04:38:35.824Z,2.90
2022-10-06T04:42:08.341Z,2.90
2022-10-06T04:45:45.216Z,3.30
2022-10-06T04:49:22.157Z,3.10
2022-10-06T04:52:58.803Z,2.90
2022-10-06T04:56:35.604Z,2.90
2022-10-06T05:00:25.551Z,3.00
2022-10-06T05:03:51.761Z,2.80
2022-10-06T05:07:26.226Z,2.80
2022-10-06T05:11:28.248Z,3.40
2022-10-06T05:14:39.682Z,2.60
2022-10-06T05:18:18.976Z,3.00
2022-10-06T05:21:53.258Z,2.90
2022-10-06T05:25:30.336Z,2.70
2022-10-06T05:29:07.268Z,3.20
2022-10-06T05:32:46.875Z,2.80
2022-10-06T05:36:23.598Z,3.00
2022-10-06T05:39:58.075Z,2.70
2022-10-06T05:43:36.245Z,2.60
2022-10-06T05:47:10.946Z,2.70
2022-10-06T05:51:08.412Z,2.70
2022-10-06T05:54:24.816Z,2.90
2022-10-06T05:58:01.496Z,2.90
2022-10-06T06:01:43.627Z,2.70
2022-10-06T06:05:47.207Z,3.30
2022-10-06T06:08:55.303Z,2.50
2022-10-06T06:12:29.223Z,2.90
2022-10-06T06:16:14.976Z,2.60
2022-10-06T06:20:21.302Z,3.10
2022-10-06T06:23:24.583Z,2.50
2022-10-06T06:26:59.495Z,3.00
2022-10-06T06:30:36.123Z,2.50
2022-10-06T06:34:12.914Z,3.10
2022-10-06T06:37:49.530Z,2.70
2022-10-06T06:41:32.235Z,2.40
2022-10-06T06:45:03.014Z,2.30
2022-10-06T06:48:46.241Z,2.00
2022-10-06T06:52:24.162Z,2.60
2022-10-06T06:55:54.087Z,2.20
2022-10-06T06:59:34.447Z,1.60
2022-10-06T07:03:07.181Z,1.60
2022-10-06T07:06:53.715Z,1.00
2022-10-06T07:10:21.202Z,1.40
2022-10-06T07:14:11.535Z,1.10
2022-10-06T07:17:56.623Z,1.20
2022-10-06T07:21:33.682Z,1.10
2022-10-06T07:25:07.784Z,1.30
2022-10-06T07:28:24.518Z,0.90
2022-10-06T07:32:02.207Z,1.20
2022-10-06T07:35:39.585Z,1.00
2022-10-06T07:39:14.985Z,1.10
2022-10-06T07:42:52.460Z,0.80
2022-10-06T07:46:28.900Z,0.80
2022-10-06T07:50:09.103Z,1.00
2022-10-06T07:53:44.823Z,0.80
2022-10-06T07:57:19.535Z,0.70
2022-10-06T08:00:55.763Z,1.50
2022-10-06T08:04:32.581Z,0.60
2022-10-06T08:08:09.350Z,0.80
2022-10-06T08:11:49.339Z,1.00
2022-10-06T08:15:23.163Z,0.70
2022-10-06T08:19:00.946Z,0.80
2022-10-06T08:22:38.907Z,0.90
2022-10-06T08:26:14.815Z,0.80
2022-10-06T08:29:51.161Z,1.50
2022-10-06T08:33:28.021Z,0.70
2022-10-06T08:37:20.574Z,1.30
2022-10-06T08:40:45.693Z,1.60
2022-10-06T08:44:34.803Z,1.60
2022-10-06T08:48:00.695Z,1.20
2022-10-06T08:51:54.042Z,0.60
2022-10-06T08:55:31.364Z,1.10
2022-10-06T08:58:57.662Z,2.20
2022-10-06T09:02:34.827Z,1.10
2022-10-06T09:06:17.143Z,0.90
2022-10-06T09:10:12.723Z,0.70
2022-10-06T09:13:22.050Z,0.80
2022-10-06T09:16:53.902Z,0.80
2022-10-06T09:20:37.004Z,0.80
2022-10-06T09:24:11.283Z,1.90
2022-10-06T09:27:40.961Z,1.30
2022-10-06T09:31:28.215Z,1.30
2022-10-06T09:34:56.268Z,1.40
2022-10-06T09:38:47.819Z,1.20
2022-10-06T09:42:26.082Z,1.30
2022-10-06T09:45:43.544Z,1.30
2022-10-06T09:49:22.783Z,1.10
2022-10-06T09:53:05.665Z,1.70
2022-10-06T09:56:36.405Z,1.60
2022-10-06T10:00:35.080Z,1.40
2022-10-06T10:04:15.679Z,2.10
2022-10-06T10:07:28.763Z,1.80
2022-10-06T10:11:41.161Z,1.90
2022-10-06T10:14:40.727Z,1.30
2022-10-06T10:18:26.444Z,1.80
2022-10-06T10:21:58.329Z,1.30
2022-10-06T10:26:08.168Z,1.60
2022-10-06T10:29:33.014Z,1.20
2022-10-06T10:33:10.073Z,1.40
2022-10-06T10:36:31.222Z,1.80
2022-10-06T10:40:03.503Z,1.50
2022-10-06T10:43:41.243Z,1.90
2022-10-06T10:47:19.504Z,2.50
2022-10-06T10:51:02.368Z,2.20
2022-10-06T10:54:52.123Z,1.50
2022-10-06T10:58:21.416Z,1.10
2022-10-06T11:02:11.732Z,1.70
2022-10-06T11:05:43.892Z,1.80
2022-10-06T11:09:23.405Z,2.10
2022-10-06T11:13:02.482Z,1.20
2022-10-06T11:16:37.834Z,1.40
2022-10-06T11:20:04.854Z,1.30
2022-10-06T11:23:46.115Z,1.40
2022-10-06T11:27:23.939Z,1.20
2022-10-06T11:30:51.406Z,1.80
2022-10-06T11:34:20.781Z,2.50
2022-10-06T11:38:02.666Z,1.00
2022-10-06T11:41:49.762Z,2.00
2022-10-06T11:45:16.575Z,1.50
2022-10-06T11:48:48.222Z,1.80
2022-10-06T11:52:23.943Z,1.30
2022-10-06T11:56:19.441Z,1.40
2022-10-06T11:59:37.447Z,1.30
2022-10-06T12:03:44.035Z,1.20
2022-10-06T12:06:51.203Z,1.10
2022-10-06T12:10:28.064Z,1.10
2022-10-06T12:15:31.947Z,1.30
2022-10-06T12:17:58.141Z,1.00
2022-10-06T12:21:28.046Z,1.00
2022-10-06T12:28:53.568Z,1.70
2022-10-06T12:33:17.364Z,1.60
2022-10-06T12:37:39.841Z,1.90
2022-10-06T12:42:00.264Z,1.20
2022-10-06T12:46:24.547Z,1.00
2022-10-06T12:50:26.835Z,1.50
2022-10-06T12:55:54.436Z,1.50
2022-10-06T12:59:55.043Z,1.20
2022-10-06T13:03:55.365Z,2.00
2022-10-06T13:08:22.733Z,1.50
2022-10-06T13:12:29.221Z,1.80
2022-10-06T13:16:41.075Z,1.20
2022-10-06T13:20:43.101Z,1.20
2022-10-06T13:24:43.117Z,1.40
2022-10-06T13:28:51.332Z,1.30
2022-10-06T13:32:39.803Z,1.70
2022-10-06T13:35:59.355Z,1.40
2022-10-06T13:39:58.143Z,1.90
2022-10-06T13:44:23.264Z,2.00
2022-10-06T13:48:30.139Z,1.70
2022-10-06T13:52:48.977Z,1.50
2022-10-06T13:57:01.269Z,1.20
2022-10-06T14:01:02.071Z,1.40
2022-10-06T14:05:20.755Z,2.10
2022-10-06T14:09:26.068Z,1.20
2022-10-06T14:13:38.060Z,2.10
2022-10-06T14:18:00.537Z,1.10
2022-10-06T14:22:02.467Z,2.00
2022-10-06T14:25:38.014Z,1.70
2022-10-06T14:29:50.077Z,1.90
2022-10-06T14:33:54.437Z,1.50
2022-10-06T14:37:53.491Z,1.60
2022-10-06T14:41:52.077Z,1.80
2022-10-06T14:45:51.433Z,1.90
2022-10-06T14:49:55.541Z,1.50
2022-10-06T14:53:56.706Z,1.40
2022-10-06T14:58:15.741Z,1.00
2022-10-06T15:02:16.922Z,2.90
2022-10-06T15:06:38.435Z,2.90
2022-10-06T15:10:38.923Z,2.00
2022-10-06T15:14:40.165Z,1.50
2022-10-06T15:18:42.611Z,1.80
2022-10-06T15:23:03.893Z,1.40
2022-10-06T15:26:37.592Z,2.40
2022-10-06T15:30:40.575Z,2.70
2022-10-06T15:34:15.121Z,1.50
2022-10-06T15:38:29.295Z,2.30
2022-10-06T15:42:29.441Z,1.90
2022-10-06T15:46:42.871Z,2.00
2022-10-06T15:51:02.820Z,1.00
2022-10-06T15:55:01.770Z,1.80
2022-10-06T15:59:08.884Z,2.20
2022-10-06T16:03:26.218Z,1.50
2022-10-06T16:06:56.147Z,2.10
2022-10-06T16:10:59.015Z,1.20
2022-10-06T16:14:57.846Z,1.40
2022-10-06T16:18:56.855Z,1.10
2022-10-06T16:22:55.835Z,2.80
2022-10-06T16:27:12.133Z,1.60
2022-10-06T16:31:10.904Z,1.90
2022-10-06T16:35:34.595Z,2.00
2022-10-06T16:39:32.981Z,2.00
2022-10-06T16:43:50.369Z,1.80
2022-10-06T16:47:22.860Z,3.00
2022-10-06T16:51:27.860Z,2.70
2022-10-06T16:55:27.774Z,2.30
2022-10-06T16:59:26.890Z,1.60
2022-10-06T17:03:25.685Z,2.30
2022-10-06T17:07:24.767Z,2.00
2022-10-06T17:11:25.678Z,2.00
2022-10-06T17:15:23.650Z,2.50
2022-10-06T17:19:35.784Z,1.80
2022-10-06T17:23:35.322Z,2.40
2022-10-06T17:27:47.656Z,2.30
2022-10-06T17:31:47.685Z,1.40
2022-10-06T17:35:46.378Z,2.10
2022-10-06T17:39:58.995Z,1.60
2022-10-06T17:44:13.904Z,2.20
2022-10-06T17:48:12.472Z,2.30
2022-10-06T17:52:11.211Z,2.00
2022-10-06T17:56:11.803Z,1.80
2022-10-06T18:00:11.195Z,2.00
2022-10-06T18:04:18.724Z,1.90
2022-10-06T18:08:20.976Z,2.80
2022-10-06T18:12:23.390Z,2.20
2022-10-06T18:16:24.951Z,1.90
2022-10-06T18:20:30.085Z,1.90
2022-10-06T18:24:31.603Z,2.80
2022-10-06T18:28:31.240Z,2.30
2022-10-06T18:36:48.583Z,2.50
2022-10-06T18:41:06.621Z,2.80
2022-10-06T18:45:24.838Z,2.60
2022-10-06T18:49:26.674Z,2.70
2022-10-06T18:53:02.916Z,2.70
2022-10-06T18:57:17.656Z,2.30
2022-10-06T19:00:54.773Z,2.90
2022-10-06T19:04:53.277Z,2.60
2022-10-06T19:09:00.989Z,2.40
2022-10-06T19:12:59.685Z,2.80
2022-10-06T19:17:14.700Z,3.70
2022-10-06T19:21:27.417Z,2.50
2022-10-06T19:25:30.742Z,2.90
2022-10-06T19:29:08.410Z,2.40
2022-10-06T19:33:20.836Z,2.10
2022-10-06T19:37:21.943Z,2.80
2022-10-06T19:41:18.181Z,2.20
2022-10-06T19:45:18.432Z,3.00
2022-10-06T19:49:20.375Z,3.10
2022-10-06T19:53:34.731Z,3.20
2022-10-06T20:29:50.258Z,2.40
2022-10-06T20:32:49.000Z,3.30
2022-10-06T20:36:51.874Z,3.70
2022-10-06T20:41:08.520Z,2.70
2022-10-06T20:45:07.603Z,2.80
2022-10-06T20:49:19.879Z,2.40
2022-10-06T20:53:32.533Z,2.60
2022-10-06T20:57:33.926Z,2.80
2022-10-06T21:01:32.979Z,2.60
2022-10-06T21:05:33.267Z,2.30
2022-10-06T21:09:31.665Z,2.60
2022-10-06T21:13:51.092Z,2.30
2022-10-06T21:18:05.885Z,3.80
2022-10-06T21:22:05.298Z,2.70
2022-10-06T21:26:04.599Z,2.70
2022-10-06T21:30:03.876Z,3.00
2022-10-06T21:34:04.219Z,2.20
2022-10-06T21:38:04.024Z,2.80
2022-10-06T21:42:03.091Z,2.20
2022-10-06T21:46:26.971Z,2.20
2022-10-06T21:50:20.097Z,2.70
2022-10-06T21:54:19.750Z,1.60
2022-10-06T21:58:32.026Z,2.20
2022-10-06T22:02:31.104Z,2.30
2022-10-06T22:06:31.764Z,2.90
2022-10-06T22:10:30.565Z,2.40
2022-10-06T22:14:28.865Z,2.20
2022-10-06T22:18:26.703Z,1.70
2022-10-06T22:22:38.447Z,1.80
2022-10-06T22:26:50.726Z,2.10
2022-10-06T22:30:49.404Z,2.10
2022-10-06T22:34:51.598Z,2.00
2022-10-06T22:38:52.958Z,2.60
2022-10-06T22:43:09.717Z,1.60
2022-10-06T22:46:50.156Z,2.30
2022-10-06T22:50:20.807Z,1.90
2022-10-06T22:54:22.601Z,1.80
2022-10-06T22:57:56.531Z,2.30
2022-10-06T23:01:54.741Z,2.90
2022-10-06T23:05:58.592Z,1.80
2022-10-06T23:10:10.506Z,1.70
2022-10-06T23:14:22.386Z,2.00
2022-10-06T23:18:20.666Z,1.50
2022-10-06T23:22:19.384Z,2.50
2022-10-06T23:26:19.176Z,1.80
2022-10-06T23:30:17.467Z,1.70
2022-10-06T23:34:15.643Z,1.80
2022-10-06T23:38:27.957Z,2.20
2022-10-06T23:42:26.824Z,2.10
2022-10-06T23:46:25.053Z,1.90
2022-10-06T23:50:23.384Z,1.90
2022-10-06T23:54:21.777Z,1.80
2022-10-06T23:58:29.285Z,1.40
